Time;durP1;ratioP1;P1;durP2;ratioP2;P2;SDS_P1;SDS_P2;PMS_P1;PMS_P2;Temp;Humidity;BMP_temperature;BMP_pressure;BME280_temperature;BME280_humidity;BME280_pressure;Samples;Min_cycle;Max_cycle;Signal;HPM_P1;HPM_P2
2023/01/06 00:02:20;;;;;;;4.10;1.67;;;;;;;;;;4936523;29;20233;-63
2023/01/06 00:04:45;;;;;;;4.43;1.80;;;;;;;;;;4936972;29;20215;-62
2023/01/06 00:07:10;;;;;;;5.72;2.47;;;;;;;;;;4950296;28;20237;-63
2023/01/06 00:09:36;;;;;;;5.30;1.98;;;;;;;;;;4956278;28;20269;-63
2023/01/06 00:12:02;;;;;;;4.65;2.00;;;;;;;;;;4955358;28;20211;-63
2023/01/06 00:14:28;;;;;;;4.80;1.70;;;;;;;;;;4952185;28;20207;-62
2023/01/06 00:16:53;;;;;;;4.38;1.70;;;;;;;;;;4936809;28;20214;-62
2023/01/06 00:19:18;;;;;;;5.03;1.90;;;;;;;;;;4936294;28;20227;-62
2023/01/06 00:21:44;;;;;;;2.63;1.48;;;;;;;;;;4935937;28;20630;-63
2023/01/06 00:24:10;;;;;;;6.38;2.33;;;;;;;;;;4936308;28;20207;-63
2023/01/06 00:26:36;;;;;;;4.90;1.83;;;;;;;;;;4936571;28;20221;-62
2023/01/06 00:29:01;;;;;;;4.40;1.80;;;;;;;;;;4935526;28;20199;-63
2023/01/06 00:31:26;;;;;;;6.97;2.00;;;;;;;;;;4936455;28;20290;-63
2023/01/06 00:33:52;;;;;;;5.90;2.00;;;;;;;;;;4935853;28;20218;-62
2023/01/06 00:36:17;;;;;;;4.63;1.90;;;;;;;;;;4956918;28;20253;-62
2023/01/06 00:38:42;;;;;;;4.88;2.03;;;;;;;;;;4974959;28;20228;-62
2023/01/06 00:43:53;;;;;;;5.20;1.98;;;;;;;;;;4974879;28;20220;-62
2023/01/06 00:46:19;;;;;;;4.75;1.90;;;;;;;;;;4973667;28;20214;-62
2023/01/06 00:48:44;;;;;;;4.18;1.88;;;;;;;;;;4973896;28;20642;-62
2023/01/06 00:51:09;;;;;;;5.68;1.80;;;;;;;;;;4970032;28;20207;-63
2023/01/06 00:53:34;;;;;;;4.90;2.00;;;;;;;;;;4955105;28;20674;-62
2023/01/06 00:56:00;;;;;;;4.80;1.73;;;;;;;;;;4954266;28;20215;-62
2023/01/06 00:58:31;;;;;;;5.93;1.80;;;;;;;;;;4954755;28;20214;-62
2023/01/06 01:00:57;;;;;;;5.25;2.00;;;;;;;;;;4955169;28;20732;-62
2023/01/06 01:03:22;;;;;;;4.68;1.80;;;;;;;;;;4953598;28;20261;-62
2023/01/06 01:05:47;;;;;;;3.72;1.85;;;;;;;;;;4958827;28;20202;-62
2023/01/06 01:08:13;;;;;;;4.93;1.85;;;;;;;;;;4973669;28;20232;-63
2023/01/06 01:10:38;;;;;;;6.47;1.80;;;;;;;;;;4973475;28;20572;-62
2023/01/06 01:13:03;;;;;;;4.07;1.80;;;;;;;;;;4973460;28;20218;-62
2023/01/06 01:15:29;;;;;;;3.63;1.60;;;;;;;;;;4974128;28;20241;-62
2023/01/06 01:17:54;;;;;;;3.35;1.67;;;;;;;;;;4956044;28;20684;-62
2023/01/06 01:20:20;;;;;;;3.80;1.80;;;;;;;;;;4973563;28;20225;-62
2023/01/06 01:22:45;;;;;;;6.20;2.10;;;;;;;;;;4973961;28;20243;-62
2023/01/06 01:25:10;;;;;;;3.85;1.63;;;;;;;;;;4972978;28;20265;-62
2023/01/06 01:27:36;;;;;;;4.20;1.80;;;;;;;;;;4973791;28;20672;-62
2023/01/06 01:30:01;;;;;;;4.70;1.90;;;;;;;;;;4973566;28;20220;-63
2023/01/06 01:32:27;;;;;;;5.38;2.25;;;;;;;;;;4972966;28;20210;-62
2023/01/06 01:34:52;;;;;;;3.35;1.63;;;;;;;;;;4973887;28;20230;-62
2023/01/06 01:37:17;;;;;;;4.82;2.28;;;;;;;;;;4972455;28;20213;-62
2023/01/06 01:39:43;;;;;;;4.78;2.85;;;;;;;;;;4973902;28;20624;-62
2023/01/06 01:42:12;;;;;;;5.25;1.90;;;;;;;;;;4972911;28;20214;-62
2023/01/06 01:44:49;;;;;;;4.18;2.00;;;;;;;;;;4955855;28;20205;-62
2023/01/06 01:47:18;;;;;;;4.13;1.60;;;;;;;;;;4973206;28;20210;-62
2023/01/06 01:49:45;;;;;;;3.92;1.70;;;;;;;;;;4973906;28;20213;-62
2023/01/06 01:52:10;;;;;;;3.40;1.92;;;;;;;;;;4960125;28;20207;-63
2023/01/06 01:54:35;;;;;;;3.72;1.63;;;;;;;;;;4960796;28;20225;-62
2023/01/06 01:57:09;;;;;;;3.58;1.48;;;;;;;;;;4973344;28;20210;-62
2023/01/06 01:59:34;;;;;;;3.05;1.58;;;;;;;;;;4972555;28;20604;-62
2023/01/06 02:02:00;;;;;;;5.10;1.77;;;;;;;;;;4973579;28;20214;-62
2023/01/06 02:04:25;;;;;;;4.45;1.80;;;;;;;;;;4972941;28;20210;-63
2023/01/06 02:06:50;;;;;;;3.45;1.70;;;;;;;;;;4943215;28;20222;-62
2023/01/06 02:09:23;;;;;;;4.60;1.77;;;;;;;;;;4953676;28;20222;-62
2023/01/06 02:11:50;;;;;;;2.60;1.70;;;;;;;;;;4937087;29;20206;-62
2023/01/06 02:14:17;;;;;;;3.95;1.63;;;;;;;;;;4938077;28;20217;-62
2023/01/06 02:16:49;;;;;;;3.47;1.40;;;;;;;;;;4973669;28;20272;-62
2023/01/06 02:19:20;;;;;;;3.67;1.40;;;;;;;;;;4972762;28;20230;-62
2023/01/06 02:22:10;;;;;;;4.78;1.67;;;;;;;;;;4956087;28;20217;-62
2023/01/06 02:24:48;;;;;;;1.80;1.30;;;;;;;;;;4955692;28;20240;-62
2023/01/06 02:27:25;;;;;;;2.95;1.40;;;;;;;;;;4955086;28;20292;-62
2023/01/06 02:30:01;;;;;;;2.85;1.30;;;;;;;;;;4955922;28;20220;-62
2023/01/06 02:32:33;;;;;;;1.60;1.20;;;;;;;;;;4955775;28;20676;-62
2023/01/06 02:35:08;;;;;;;3.33;1.10;;;;;;;;;;4963428;28;20690;-62
2023/01/06 02:37:41;;;;;;;2.78;1.20;;;;;;;;;;4936480;29;20678;-62
2023/01/06 02:40:17;;;;;;;2.75;1.17;;;;;;;;;;4936248;29;20219;-62
2023/01/06 02:43:01;;;;;;;2.30;1.10;;;;;;;;;;4917023;29;20577;-62
2023/01/06 02:45:46;;;;;;;4.47;1.55;;;;;;;;;;4934162;29;20226;-62
2023/01/06 02:48:14;;;;;;;3.10;1.23;;;;;;;;;;4933574;29;20223;-62
2023/01/06 02:50:40;;;;;;;2.45;1.10;;;;;;;;;;4933563;29;20211;-62
2023/01/06 02:53:08;;;;;;;4.28;1.27;;;;;;;;;;4933802;28;20270;-62
2023/01/06 02:55:36;;;;;;;3.90;1.20;;;;;;;;;;4934444;28;20219;-62
2023/01/06 02:58:04;;;;;;;2.50;1.13;;;;;;;;;;4914163;29;20210;-63
2023/01/06 03:00:32;;;;;;;2.80;1.30;;;;;;;;;;4919869;29;20322;-62
2023/01/06 03:02:59;;;;;;;4.97;1.70;;;;;;;;;;4939180;28;20213;-62
2023/01/06 03:05:24;;;;;;;4.32;1.20;;;;;;;;;;4923450;28;20230;-62
2023/01/06 03:07:49;;;;;;;4.55;1.65;;;;;;;;;;4925172;29;20786;-62
2023/01/06 03:10:15;;;;;;;3.45;1.65;;;;;;;;;;4925352;29;20215;-62
2023/01/06 03:12:42;;;;;;;3.75;1.60;;;;;;;;;;4926732;29;20219;-62
2023/01/06 03:15:08;;;;;;;4.25;1.80;;;;;;;;;;4927745;28;20313;-62
2023/01/06 03:17:33;;;;;;;2.75;1.10;;;;;;;;;;4926084;29;20819;-62
2023/01/06 03:19:58;;;;;;;2.53;1.27;;;;;;;;;;4921038;29;20916;-62
2023/01/06 03:22:24;;;;;;;2.90;1.20;;;;;;;;;;4919715;29;20371;-63
2023/01/06 03:24:49;;;;;;;2.50;1.20;;;;;;;;;;4921297;29;20219;-62
2023/01/06 03:27:15;;;;;;;2.97;1.00;;;;;;;;;;4926393;29;20244;-62
2023/01/06 03:29:40;;;;;;;2.20;1.10;;;;;;;;;;4926209;29;20223;-63
2023/01/06 03:32:13;;;;;;;3.63;1.00;;;;;;;;;;4928246;29;20221;-63
2023/01/06 03:34:51;;;;;;;2.72;1.00;;;;;;;;;;4927967;29;20256;-62
2023/01/06 03:37:17;;;;;;;1.98;0.93;;;;;;;;;;4926950;29;20229;-62
2023/01/06 03:39:43;;;;;;;2.58;1.10;;;;;;;;;;4927472;29;20768;-62
2023/01/06 03:45:01;;;;;;;2.35;0.85;;;;;;;;;;4919356;29;20708;-62
2023/01/06 03:47:28;;;;;;;2.97;0.93;;;;;;;;;;4940488;28;20318;-62
2023/01/06 03:49:55;;;;;;;2.10;0.90;;;;;;;;;;4946475;28;20225;-62
2023/01/06 03:52:24;;;;;;;2.30;0.80;;;;;;;;;;4931195;28;20243;-62
2023/01/06 03:54:52;;;;;;;2.10;0.80;;;;;;;;;;4945163;28;20293;-62
2023/01/06 03:57:20;;;;;;;3.15;0.80;;;;;;;;;;4944743;28;20218;-62
2023/01/06 03:59:46;;;;;;;1.98;1.00;;;;;;;;;;4944427;28;20233;-62
2023/01/06 04:02:11;;;;;;;2.47;0.95;;;;;;;;;;4944307;28;20218;-62
2023/01/06 04:04:37;;;;;;;2.65;1.20;;;;;;;;;;4923494;29;20262;-62
2023/01/06 04:07:02;;;;;;;2.85;1.08;;;;;;;;;;4919085;29;20219;-62
2023/01/06 04:09:28;;;;;;;2.28;0.73;;;;;;;;;;4919992;29;20811;-62
2023/01/06 04:14:37;;;;;;;2.17;0.80;;;;;;;;;;4941040;28;20211;-62
2023/01/06 04:17:02;;;;;;;2.28;0.80;;;;;;;;;;4926846;29;20227;-62
2023/01/06 04:19:27;;;;;;;2.40;0.90;;;;;;;;;;4926373;29;20234;-62
2023/01/06 04:21:52;;;;;;;2.55;0.80;;;;;;;;;;4944957;28;20219;-62
2023/01/06 04:24:18;;;;;;;2.40;0.80;;;;;;;;;;4945907;28;20729;-62
2023/01/06 04:26:43;;;;;;;2.80;0.70;;;;;;;;;;4939260;28;20293;-62
2023/01/06 04:29:08;;;;;;;2.22;0.70;;;;;;;;;;4937331;28;20223;-62
2023/01/06 04:31:34;;;;;;;2.65;0.70;;;;;;;;;;4937727;28;20214;-62
2023/01/06 04:33:59;;;;;;;1.63;0.63;;;;;;;;;;4943631;28;20968;-62
2023/01/06 04:36:24;;;;;;;3.17;0.82;;;;;;;;;;4945517;28;20225;-62
2023/01/06 04:38:50;;;;;;;2.40;0.77;;;;;;;;;;4945946;28;20210;-62
2023/01/06 04:41:15;;;;;;;2.65;1.08;;;;;;;;;;4936200;28;20218;-62
2023/01/06 04:43:40;;;;;;;1.63;0.63;;;;;;;;;;4926732;29;20211;-62
2023/01/06 04:46:05;;;;;;;2.67;0.90;;;;;;;;;;4926283;29;20227;-62
2023/01/06 04:48:31;;;;;;;1.05;0.60;;;;;;;;;;4922286;29;20223;-62
2023/01/06 04:51:00;;;;;;;2.00;0.80;;;;;;;;;;4919030;29;20235;-62
2023/01/06 04:53:25;;;;;;;2.45;0.80;;;;;;;;;;4918627;29;20306;-62
2023/01/06 04:55:51;;;;;;;2.60;0.80;;;;;;;;;;4921331;29;20223;-62
2023/01/06 04:58:16;;;;;;;1.65;0.70;;;;;;;;;;4925968;29;20326;-62
2023/01/06 05:00:41;;;;;;;1.85;0.70;;;;;;;;;;4926270;29;20878;-62
2023/01/06 05:03:07;;;;;;;3.03;0.80;;;;;;;;;;4925389;29;20223;-62
2023/01/06 05:05:32;;;;;;;1.73;0.85;;;;;;;;;;4926412;29;20243;-62
2023/01/06 05:07:57;;;;;;;1.35;0.70;;;;;;;;;;4944980;28;20206;-62
2023/01/06 05:10:22;;;;;;;2.53;0.90;;;;;;;;;;4942761;28;20270;-62
2023/01/06 05:12:48;;;;;;;2.47;0.80;;;;;;;;;;4925499;28;20207;-62
2023/01/06 05:15:13;;;;;;;1.90;0.70;;;;;;;;;;4918491;28;20790;-62
2023/01/06 05:17:38;;;;;;;2.75;0.85;;;;;;;;;;4919375;29;20360;-62
2023/01/06 05:20:04;;;;;;;2.33;0.80;;;;;;;;;;4925810;29;20753;-62
2023/01/06 05:22:29;;;;;;;2.72;0.80;;;;;;;;;;4925714;29;21198;-62
2023/01/06 05:24:55;;;;;;;2.55;0.85;;;;;;;;;;4926216;29;20265;-62
2023/01/06 05:27:20;;;;;;;2.72;0.70;;;;;;;;;;4925225;29;20219;-62
2023/01/06 05:29:45;;;;;;;2.55;0.65;;;;;;;;;;4925697;29;20759;-62
2023/01/06 05:32:11;;;;;;;1.67;0.73;;;;;;;;;;4925049;29;20250;-62
2023/01/06 05:34:36;;;;;;;2.53;0.85;;;;;;;;;;4920378;29;20263;-62
2023/01/06 05:37:01;;;;;;;3.80;1.10;;;;;;;;;;4917101;29;20211;-62
2023/01/06 05:39:27;;;;;;;3.67;1.20;;;;;;;;;;4919759;28;20470;-62
2023/01/06 05:41:52;;;;;;;3.65;1.00;;;;;;;;;;4923655;29;20219;-62
2023/01/06 05:44:17;;;;;;;2.55;0.93;;;;;;;;;;4924905;29;20313;-61
2023/01/06 05:46:42;;;;;;;2.08;0.80;;;;;;;;;;4925925;29;20318;-61
2023/01/06 05:49:08;;;;;;;1.63;0.70;;;;;;;;;;4925606;29;20686;-62
2023/01/06 05:51:33;;;;;;;3.25;0.80;;;;;;;;;;4925064;29;20215;-61
2023/01/06 05:53:58;;;;;;;2.63;0.90;;;;;;;;;;4925859;29;20230;-61
2023/01/06 05:56:24;;;;;;;1.50;0.80;;;;;;;;;;4921810;29;20251;-62
2023/01/06 05:58:50;;;;;;;2.17;0.90;;;;;;;;;;4917364;29;20661;-61
2023/01/06 06:01:15;;;;;;;1.80;0.93;;;;;;;;;;4917327;29;20602;-62
2023/01/06 06:03:40;;;;;;;2.10;0.77;;;;;;;;;;4920609;29;20251;-62
2023/01/06 06:06:06;;;;;;;1.30;0.68;;;;;;;;;;4924842;29;20255;-62
2023/01/06 06:08:31;;;;;;;2.17;0.90;;;;;;;;;;4925852;29;20566;-62
2023/01/06 06:11:01;;;;;;;2.28;0.80;;;;;;;;;;4925898;29;20219;-62
2023/01/06 06:13:26;;;;;;;2.25;0.88;;;;;;;;;;4943028;28;20222;-62
2023/01/06 06:15:51;;;;;;;1.05;0.60;;;;;;;;;;4929405;28;20219;-62
2023/01/06 06:18:17;;;;;;;1.13;0.57;;;;;;;;;;4922169;29;20682;-63
2023/01/06 06:20:43;;;;;;;1.42;0.60;;;;;;;;;;4935851;28;20694;-62
2023/01/06 06:23:09;;;;;;;1.88;0.70;;;;;;;;;;4936107;28;20705;-62
2023/01/06 06:25:34;;;;;;;2.65;0.80;;;;;;;;;;4937221;28;20222;-62
2023/01/06 06:27:59;;;;;;;1.42;0.68;;;;;;;;;;4944054;28;20277;-62
2023/01/06 06:30:25;;;;;;;1.38;0.70;;;;;;;;;;4943272;28;20222;-62
2023/01/06 06:32:50;;;;;;;2.08;0.90;;;;;;;;;;4935253;28;20218;-62
2023/01/06 06:35:15;;;;;;;1.33;0.60;;;;;;;;;;4924883;29;20234;-62
2023/01/06 06:37:40;;;;;;;3.58;1.80;;;;;;;;;;4926954;29;20215;-62
2023/01/06 06:40:06;;;;;;;1.95;1.30;;;;;;;;;;4926323;28;20672;-62
2023/01/06 06:42:32;;;;;;;1.60;1.35;;;;;;;;;;4917085;29;20226;-62
2023/01/06 06:44:58;;;;;;;1.33;0.70;;;;;;;;;;4919952;29;20321;-62
2023/01/06 06:47:23;;;;;;;1.42;0.60;;;;;;;;;;4925177;29;20261;-62
2023/01/06 06:49:50;;;;;;;1.42;0.70;;;;;;;;;;4928619;29;20215;-62
2023/01/06 06:52:15;;;;;;;2.28;0.80;;;;;;;;;;4929082;29;20219;-62
2023/01/06 06:54:40;;;;;;;1.70;0.60;;;;;;;;;;4928223;29;20814;-62
2023/01/06 06:57:06;;;;;;;1.73;0.70;;;;;;;;;;4928078;29;20626;-62
2023/01/06 06:59:31;;;;;;;1.33;0.80;;;;;;;;;;4928655;29;20286;-62
2023/01/06 07:01:56;;;;;;;2.13;0.70;;;;;;;;;;4925635;29;20297;-62
2023/01/06 07:04:22;;;;;;;1.55;0.80;;;;;;;;;;4920689;29;20211;-62
2023/01/06 07:06:47;;;;;;;0.75;0.60;;;;;;;;;;4920655;29;20346;-62
2023/01/06 07:09:12;;;;;;;2.17;0.70;;;;;;;;;;4922181;29;20709;-62
2023/01/06 07:11:37;;;;;;;1.25;0.65;;;;;;;;;;4928306;29;20215;-62
2023/01/06 07:14:03;;;;;;;1.30;0.60;;;;;;;;;;4927577;28;20222;-62
2023/01/06 07:16:29;;;;;;;1.48;0.70;;;;;;;;;;4928009;28;20207;-62
2023/01/06 07:18:55;;;;;;;1.83;0.80;;;;;;;;;;4928802;29;20223;-62
2023/01/06 07:21:20;;;;;;;1.42;0.65;;;;;;;;;;4927850;29;20680;-62
2023/01/06 07:23:45;;;;;;;1.17;0.60;;;;;;;;;;4927926;29;20219;-62
2023/01/06 07:26:11;;;;;;;2.28;0.70;;;;;;;;;;4916956;29;20207;-62
2023/01/06 07:28:36;;;;;;;1.73;0.80;;;;;;;;;;4920814;29;20234;-62
2023/01/06 07:31:01;;;;;;;2.90;0.85;;;;;;;;;;4924768;29;20293;-62
2023/01/06 07:33:28;;;;;;;0.75;0.50;;;;;;;;;;4948897;28;20577;-63
2023/01/06 07:35:53;;;;;;;2.60;1.08;;;;;;;;;;4955283;28;20265;-63
2023/01/06 07:38:19;;;;;;;2.05;0.93;;;;;;;;;;4938666;28;20297;-64
2023/01/06 07:40:44;;;;;;;1.45;0.70;;;;;;;;;;4956232;28;20233;-63
2023/01/06 07:43:09;;;;;;;1.20;0.60;;;;;;;;;;4955027;28;21024;-63
2023/01/06 07:45:35;;;;;;;1.88;0.77;;;;;;;;;;4955825;28;20307;-63
2023/01/06 07:48:00;;;;;;;1.85;0.90;;;;;;;;;;4955490;28;20217;-64
2023/01/06 07:50:26;;;;;;;1.85;0.98;;;;;;;;;;4955147;28;20222;-65
2023/01/06 07:52:51;;;;;;;2.10;0.85;;;;;;;;;;4955716;28;20289;-65
2023/01/06 07:55:17;;;;;;;1.20;0.80;;;;;;;;;;4955079;28;20753;-65
2023/01/06 07:57:42;;;;;;;3.60;1.10;;;;;;;;;;4954567;28;20239;-65
2023/01/06 08:00:07;;;;;;;1.95;1.10;;;;;;;;;;4955085;28;20752;-65
2023/01/06 08:02:33;;;;;;;1.42;1.10;;;;;;;;;;4955812;28;20218;-65
2023/01/06 08:04:58;;;;;;;1.00;0.90;;;;;;;;;;4954848;28;20617;-65
2023/01/06 08:07:23;;;;;;;1.77;1.20;;;;;;;;;;4954504;28;20218;-65
2023/01/06 08:09:49;;;;;;;1.95;1.20;;;;;;;;;;4955557;28;20206;-65
2023/01/06 08:12:14;;;;;;;1.48;1.30;;;;;;;;;;4954081;28;20217;-65
2023/01/06 08:14:39;;;;;;;1.85;1.20;;;;;;;;;;4955145;28;20241;-65
2023/01/06 08:17:05;;;;;;;1.60;1.50;;;;;;;;;;4955042;28;20636;-65
2023/01/06 08:19:30;;;;;;;1.77;1.20;;;;;;;;;;4954889;28;20214;-65
2023/01/06 08:21:55;;;;;;;1.75;1.40;;;;;;;;;;4955260;28;20561;-65
2023/01/06 08:24:21;;;;;;;1.67;1.20;;;;;;;;;;4954893;28;20577;-65
2023/01/06 08:26:46;;;;;;;1.55;1.25;;;;;;;;;;4954190;28;20577;-65
2023/01/06 08:29:11;;;;;;;2.35;1.38;;;;;;;;;;4954748;28;20282;-65
2023/01/06 08:31:37;;;;;;;1.95;1.50;;;;;;;;;;4952886;28;20561;-65
2023/01/06 08:34:02;;;;;;;1.50;1.40;;;;;;;;;;4952514;28;20211;-65
2023/01/06 08:36:27;;;;;;;1.60;1.50;;;;;;;;;;4953577;28;20277;-65
2023/01/06 08:38:53;;;;;;;1.73;1.38;;;;;;;;;;4954867;28;20690;-65
2023/01/06 08:41:18;;;;;;;2.58;1.60;;;;;;;;;;4953372;28;20326;-64
2023/01/06 08:43:44;;;;;;;1.40;1.30;;;;;;;;;;4954300;28;20207;-65
2023/01/06 08:46:10;;;;;;;1.55;1.40;;;;;;;;;;4953911;28;20261;-65
2023/01/06 08:48:36;;;;;;;1.45;1.33;;;;;;;;;;4954587;28;20222;-65
2023/01/06 08:51:03;;;;;;;1.98;1.40;;;;;;;;;;4954366;28;20246;-64
2023/01/06 08:53:28;;;;;;;1.65;1.30;;;;;;;;;;4953941;28;20700;-64
2023/01/06 08:55:53;;;;;;;2.60;1.75;;;;;;;;;;4954038;28;20214;-64
2023/01/06 08:58:19;;;;;;;2.00;1.55;;;;;;;;;;4954128;28;20238;-64
2023/01/06 09:00:44;;;;;;;1.80;1.45;;;;;;;;;;4953700;28;20226;-65
2023/01/06 09:03:09;;;;;;;1.58;1.30;;;;;;;;;;4953818;28;20645;-65
2023/01/06 09:05:35;;;;;;;1.55;1.40;;;;;;;;;;4935576;29;20213;-64
2023/01/06 09:08:00;;;;;;;1.83;1.40;;;;;;;;;;4952776;28;20217;-64
2023/01/06 09:10:25;;;;;;;1.60;1.40;;;;;;;;;;4954239;28;20238;-64
2023/01/06 09:12:51;;;;;;;2.58;1.60;;;;;;;;;;4954378;28;20674;-64
2023/01/06 09:15:16;;;;;;;2.50;1.60;;;;;;;;;;4949271;28;20297;-64
2023/01/06 09:17:41;;;;;;;3.72;1.70;;;;;;;;;;4954206;28;20210;-64
2023/01/06 09:20:07;;;;;;;2.88;1.60;;;;;;;;;;4953863;28;20305;-64
2023/01/06 09:22:32;;;;;;;2.45;1.27;;;;;;;;;;4953431;28;20210;-64
2023/01/06 09:24:57;;;;;;;3.17;1.50;;;;;;;;;;4954021;28;20220;-64
2023/01/06 09:27:23;;;;;;;2.22;1.50;;;;;;;;;;4953345;28;20246;-64
2023/01/06 09:29:48;;;;;;;3.45;1.50;;;;;;;;;;4953399;28;20247;-64
2023/01/06 09:32:13;;;;;;;3.53;1.60;;;;;;;;;;4953622;28;20221;-64
2023/01/06 09:34:39;;;;;;;2.92;1.40;;;;;;;;;;4954008;28;20218;-64
2023/01/06 09:37:04;;;;;;;2.35;1.25;;;;;;;;;;4952968;28;20214;-64
2023/01/06 09:39:29;;;;;;;3.60;1.20;;;;;;;;;;4952477;28;20431;-64
2023/01/06 09:41:55;;;;;;;3.63;1.40;;;;;;;;;;4952656;28;20434;-64
2023/01/06 09:44:23;;;;;;;2.75;1.30;;;;;;;;;;4951156;28;20230;-64
2023/01/06 09:46:49;;;;;;;4.18;1.10;;;;;;;;;;4954003;28;20708;-64
2023/01/06 09:49:17;;;;;;;2.70;1.20;;;;;;;;;;4953375;28;20219;-64
2023/01/06 09:51:42;;;;;;;3.05;1.02;;;;;;;;;;4928247;29;20243;-64
2023/01/06 09:54:11;;;;;;;2.95;1.23;;;;;;;;;;4917655;29;20682;-64
2023/01/06 09:56:37;;;;;;;2.67;1.00;;;;;;;;;;4934478;29;20266;-64
2023/01/06 09:59:05;;;;;;;2.50;0.80;;;;;;;;;;4917655;29;20215;-64
2023/01/06 10:01:31;;;;;;;3.63;0.90;;;;;;;;;;4917245;29;20211;-64
2023/01/06 10:03:58;;;;;;;5.07;1.30;;;;;;;;;;4916147;29;20299;-64
2023/01/06 10:06:29;;;;;;;2.58;1.00;;;;;;;;;;4942919;28;20225;-64
2023/01/06 10:08:58;;;;;;;4.50;1.25;;;;;;;;;;4953583;28;20222;-64
2023/01/06 10:11:25;;;;;;;3.85;1.00;;;;;;;;;;4934701;28;20557;-64
2023/01/06 10:13:55;;;;;;;3.78;1.10;;;;;;;;;;4953586;28;20210;-64
2023/01/06 10:16:26;;;;;;;4.55;1.20;;;;;;;;;;4936448;28;20222;-65
2023/01/06 10:19:06;;;;;;;4.00;1.27;;;;;;;;;;4956329;28;20289;-65
2023/01/06 10:21:34;;;;;;;4.15;1.90;;;;;;;;;;4957807;28;20214;-65
2023/01/06 10:24:18;;;;;;;4.55;1.20;;;;;;;;;;4940867;29;20262;-65
2023/01/06 10:26:44;;;;;;;3.38;1.00;;;;;;;;;;4956835;28;20218;-64
2023/01/06 10:29:11;;;;;;;3.83;1.10;;;;;;;;;;4957542;28;20242;-64
2023/01/06 10:31:37;;;;;;;3.38;1.20;;;;;;;;;;4940678;29;20214;-65
2023/01/06 10:34:02;;;;;;;4.65;1.30;;;;;;;;;;4923365;28;20222;-65
2023/01/06 10:36:31;;;;;;;3.95;1.17;;;;;;;;;;4940536;29;20273;-65
2023/01/06 10:38:57;;;;;;;3.40;1.10;;;;;;;;;;4956979;28;20631;-64
2023/01/06 10:41:36;;;;;;;2.72;1.00;;;;;;;;;;4957229;28;20218;-65
2023/01/06 10:44:02;;;;;;;4.25;1.27;;;;;;;;;;4936520;28;20693;-64
2023/01/06 10:46:29;;;;;;;4.30;1.23;;;;;;;;;;4939268;29;20211;-64
2023/01/06 10:48:55;;;;;;;3.22;1.20;;;;;;;;;;4940615;29;20674;-65
2023/01/06 10:51:30;;;;;;;5.45;1.23;;;;;;;;;;4956920;28;20281;-64
2023/01/06 10:53:56;;;;;;;2.72;0.98;;;;;;;;;;4945726;28;20235;-64
2023/01/06 10:56:21;;;;;;;3.13;0.98;;;;;;;;;;4937671;29;20226;-64
2023/01/06 10:58:47;;;;;;;1.17;0.60;;;;;;;;;;4938425;29;20215;-64
2023/01/06 11:01:14;;;;;;;4.57;1.08;;;;;;;;;;4919948;29;20586;-64
2023/01/06 11:03:41;;;;;;;3.45;1.02;;;;;;;;;;4937974;29;20554;-64
2023/01/06 11:06:21;;;;;;;3.80;0.93;;;;;;;;;;4943898;28;20301;-64
2023/01/06 11:08:47;;;;;;;2.90;0.90;;;;;;;;;;4939579;29;20246;-64
2023/01/06 11:11:13;;;;;;;3.92;1.20;;;;;;;;;;4939710;28;20246;-65
2023/01/06 11:13:38;;;;;;;4.55;0.90;;;;;;;;;;4939984;29;20226;-64
2023/01/06 11:16:05;;;;;;;4.22;1.23;;;;;;;;;;4955965;28;20677;-65
2023/01/06 11:18:31;;;;;;;3.78;0.98;;;;;;;;;;4939922;29;20215;-64
2023/01/06 11:21:16;;;;;;;3.95;1.00;;;;;;;;;;4939122;29;20716;-64
2023/01/06 11:23:42;;;;;;;4.22;1.10;;;;;;;;;;4956680;28;20225;-63
2023/01/06 11:26:15;;;;;;;4.53;1.00;;;;;;;;;;4939178;28;20218;-64
2023/01/06 11:28:41;;;;;;;2.72;1.08;;;;;;;;;;4956078;28;20210;-64
2023/01/06 11:31:07;;;;;;;2.72;0.95;;;;;;;;;;4956090;28;20215;-64
2023/01/06 11:33:34;;;;;;;3.30;1.00;;;;;;;;;;4956582;28;20620;-63
2023/01/06 11:36:05;;;;;;;3.17;1.00;;;;;;;;;;4972762;28;20317;-63
2023/01/06 11:38:30;;;;;;;5.68;1.10;;;;;;;;;;4975645;28;20221;-63
2023/01/06 11:40:55;;;;;;;2.97;1.02;;;;;;;;;;4975901;28;20225;-63
2023/01/06 11:43:24;;;;;;;4.25;1.00;;;;;;;;;;4971020;28;20640;-64
2023/01/06 11:45:55;;;;;;;2.85;0.90;;;;;;;;;;4976133;28;20685;-64
2023/01/06 11:48:21;;;;;;;2.97;0.77;;;;;;;;;;4975411;28;20231;-64
2023/01/06 11:50:54;;;;;;;2.42;0.80;;;;;;;;;;4974997;28;20297;-63
2023/01/06 11:53:20;;;;;;;3.95;1.10;;;;;;;;;;4973933;28;20780;-63
2023/01/06 11:56:05;;;;;;;5.25;0.95;;;;;;;;;;4975307;28;20300;-63
2023/01/06 11:58:38;;;;;;;5.03;1.48;;;;;;;;;;4975460;28;20224;-63
2023/01/06 12:01:14;;;;;;;5.10;1.23;;;;;;;;;;4975450;28;20286;-64
2023/01/06 12:03:40;;;;;;;4.05;1.10;;;;;;;;;;4974771;28;20223;-63
2023/01/06 12:06:13;;;;;;;3.17;0.90;;;;;;;;;;4968874;28;20206;-64
2023/01/06 12:08:43;;;;;;;3.10;0.95;;;;;;;;;;4954912;28;20670;-64
2023/01/06 12:11:10;;;;;;;5.38;1.10;;;;;;;;;;4953714;28;20690;-64
2023/01/06 12:13:35;;;;;;;3.25;1.00;;;;;;;;;;4955806;28;20219;-64
2023/01/06 12:16:05;;;;;;;2.97;1.00;;;;;;;;;;4955683;28;20227;-64
2023/01/06 12:18:31;;;;;;;3.63;0.90;;;;;;;;;;4955091;28;20273;-64
2023/01/06 12:20:56;;;;;;;3.60;1.10;;;;;;;;;;4954752;28;20222;-65
2023/01/06 12:23:23;;;;;;;3.60;0.95;;;;;;;;;;4954109;28;20666;-64
2023/01/06 12:25:48;;;;;;;4.30;0.82;;;;;;;;;;4953809;28;20234;-64
2023/01/06 12:28:20;;;;;;;4.38;1.13;;;;;;;;;;4955049;28;20234;-64
2023/01/06 12:30:49;;;;;;;3.55;0.82;;;;;;;;;;4954815;28;20685;-65
2023/01/06 12:33:26;;;;;;;3.67;0.95;;;;;;;;;;4953193;28;20245;-63
2023/01/06 12:35:52;;;;;;;4.22;1.10;;;;;;;;;;4955487;28;20238;-64
2023/01/06 12:38:33;;;;;;;3.22;0.80;;;;;;;;;;4937384;28;20211;-63
2023/01/06 12:41:01;;;;;;;2.95;0.80;;;;;;;;;;4954698;28;20219;-62
2023/01/06 12:43:27;;;;;;;3.28;0.90;;;;;;;;;;4954828;28;20237;-63
2023/01/06 12:45:55;;;;;;;3.13;0.90;;;;;;;;;;4954979;28;20261;-63
2023/01/06 12:48:40;;;;;;;2.72;0.85;;;;;;;;;;4955119;28;20218;-64
2023/01/06 12:51:08;;;;;;;2.97;0.90;;;;;;;;;;4955025;28;20210;-63
2023/01/06 12:53:35;;;;;;;3.55;0.75;;;;;;;;;;4937550;29;20222;-63
2023/01/06 12:56:00;;;;;;;2.38;0.90;;;;;;;;;;4954838;28;20214;-63
2023/01/06 12:58:35;;;;;;;2.05;0.90;;;;;;;;;;4955265;28;20218;-63
2023/01/06 13:01:03;;;;;;;2.33;0.70;;;;;;;;;;4954377;28;20241;-63
2023/01/06 13:03:31;;;;;;;3.38;0.70;;;;;;;;;;4937841;29;20225;-63
2023/01/06 13:06:01;;;;;;;2.78;0.90;;;;;;;;;;4942146;28;20227;-63
2023/01/06 13:08:51;;;;;;;2.60;0.80;;;;;;;;;;4917772;29;20219;-64
2023/01/06 13:11:28;;;;;;;3.65;0.90;;;;;;;;;;4935156;29;20589;-63
2023/01/06 13:13:57;;;;;;;2.88;0.70;;;;;;;;;;4934828;29;20221;-63
2023/01/06 13:16:22;;;;;;;3.08;0.80;;;;;;;;;;4945144;28;20329;-64
2023/01/06 13:19:16;;;;;;;2.53;0.70;;;;;;;;;;4954859;28;20752;-64
2023/01/06 13:21:42;;;;;;;2.63;0.68;;;;;;;;;;4953075;28;20234;-64
2023/01/06 13:24:08;;;;;;;3.05;0.90;;;;;;;;;;4937311;28;20239;-64
2023/01/06 13:26:36;;;;;;;3.53;0.88;;;;;;;;;;4954862;28;20265;-63
2023/01/06 13:29:12;;;;;;;2.95;0.80;;;;;;;;;;4953185;28;20309;-63
2023/01/06 13:31:41;;;;;;;1.95;0.60;;;;;;;;;;4937442;29;20210;-63
2023/01/06 13:34:10;;;;;;;4.22;1.30;;;;;;;;;;4953490;28;20735;-64
2023/01/06 13:36:54;;;;;;;4.93;1.10;;;;;;;;;;4950290;28;20230;-64
2023/01/06 13:39:21;;;;;;;3.03;0.70;;;;;;;;;;4951494;28;20269;-63
2023/01/06 13:41:48;;;;;;;1.75;0.60;;;;;;;;;;4924029;29;20310;-63
2023/01/06 13:44:14;;;;;;;2.40;0.68;;;;;;;;;;4950622;28;20246;-63
2023/01/06 13:46:40;;;;;;;2.08;0.70;;;;;;;;;;4936760;29;20211;-63
2023/01/06 13:49:05;;;;;;;2.85;0.80;;;;;;;;;;4952792;28;20266;-63
2023/01/06 13:51:31;;;;;;;2.38;0.85;;;;;;;;;;4935202;29;20214;-63
2023/01/06 13:53:59;;;;;;;2.47;0.70;;;;;;;;;;4936425;29;20223;-64
2023/01/06 13:56:25;;;;;;;1.98;0.75;;;;;;;;;;4944663;28;20218;-63
2023/01/06 13:58:50;;;;;;;2.47;0.77;;;;;;;;;;4953242;28;20689;-63
2023/01/06 14:01:18;;;;;;;1.65;0.73;;;;;;;;;;4951459;28;20225;-63
2023/01/06 14:03:44;;;;;;;3.40;0.90;;;;;;;;;;4952772;28;20306;-63
2023/01/06 14:06:11;;;;;;;4.00;1.13;;;;;;;;;;4952990;28;20298;-63
2023/01/06 14:08:37;;;;;;;3.75;1.05;;;;;;;;;;4954065;28;20296;-63
2023/01/06 14:11:05;;;;;;;2.20;1.00;;;;;;;;;;4935806;28;20217;-63
2023/01/06 14:13:31;;;;;;;2.55;0.77;;;;;;;;;;4953568;28;20306;-63
2023/01/06 14:16:00;;;;;;;2.28;0.70;;;;;;;;;;4936236;29;20214;-63
2023/01/06 14:18:31;;;;;;;3.90;0.98;;;;;;;;;;4952589;28;20242;-64
2023/01/06 14:20:58;;;;;;;1.67;0.70;;;;;;;;;;4934019;29;20709;-63
2023/01/06 14:23:23;;;;;;;3.47;0.90;;;;;;;;;;4935738;28;20214;-62
2023/01/06 14:25:50;;;;;;;2.03;0.70;;;;;;;;;;4952887;28;20206;-62
2023/01/06 14:28:29;;;;;;;3.90;0.73;;;;;;;;;;4953747;28;20779;-64
2023/01/06 14:31:17;;;;;;;2.47;0.80;;;;;;;;;;4952906;28;20268;-63
2023/01/06 14:33:43;;;;;;;2.63;0.98;;;;;;;;;;4953041;28;20242;-63
2023/01/06 14:36:14;;;;;;;3.90;1.00;;;;;;;;;;4952865;28;20262;-63
2023/01/06 14:38:50;;;;;;;3.63;1.30;;;;;;;;;;4936309;29;20310;-63
2023/01/06 14:41:16;;;;;;;3.40;0.80;;;;;;;;;;4936252;28;20226;-63
2023/01/06 14:43:48;;;;;;;2.80;0.77;;;;;;;;;;4950086;28;20214;-63
2023/01/06 14:46:16;;;;;;;3.00;1.13;;;;;;;;;;4952529;28;20298;-63
2023/01/06 14:48:42;;;;;;;1.60;0.70;;;;;;;;;;4954129;28;20219;-63
2023/01/06 14:51:10;;;;;;;4.75;1.98;;;;;;;;;;4935994;28;20222;-63
2023/01/06 14:53:36;;;;;;;4.65;2.35;;;;;;;;;;4952960;28;20679;-63